Time;durP1;ratioP1;P1;durP2;ratioP2;P2;SDS_P1;SDS_P2;PMS_P1;PMS_P2;Temp;Humidity;BMP_temperature;BMP_pressure;BME280_temperature;BME280_humidity;BME280_pressure;Samples;Min_cycle;Max_cycle;Signal;HPM_P1;HPM_P2
2022/07/26 00:01:34;;;;;;;5.33;1.40;;;;;;;;;;4936011;29;20240;-77
2022/07/26 00:04:01;;;;;;;7.60;1.60;;;;;;;;;;4935792;29;20747;-77
2022/07/26 00:06:29;;;;;;;5.83;1.80;;;;;;;;;;4935943;29;20246;-76
2022/07/26 00:08:56;;;;;;;4.10;1.30;;;;;;;;;;4935905;29;20291;-77
2022/07/26 00:11:25;;;;;;;6.10;1.20;;;;;;;;;;4935904;29;20250;-76
2022/07/26 00:13:53;;;;;;;4.23;1.40;;;;;;;;;;4936028;29;20206;-76
2022/07/26 00:16:20;;;;;;;2.47;1.20;;;;;;;;;;4936086;29;20203;-77
2022/07/26 00:18:47;;;;;;;4.87;1.20;;;;;;;;;;4935899;29;20318;-76
2022/07/26 00:21:15;;;;;;;7.83;1.57;;;;;;;;;;4935910;29;20302;-77
2022/07/26 00:23:42;;;;;;;5.83;1.23;;;;;;;;;;4935769;29;20235;-76
2022/07/26 00:26:09;;;;;;;5.47;1.70;;;;;;;;;;4935427;29;20295;-77
2022/07/26 00:28:38;;;;;;;5.20;1.50;;;;;;;;;;4936099;29;20600;-77
2022/07/26 00:31:05;;;;;;;6.33;1.30;;;;;;;;;;4935686;29;20771;-76
2022/07/26 00:33:32;;;;;;;5.53;1.57;;;;;;;;;;4919157;29;20208;-76
2022/07/26 00:36:00;;;;;;;6.17;1.80;;;;;;;;;;4942869;29;20239;-76
2022/07/26 00:38:27;;;;;;;6.07;1.60;;;;;;;;;;4954192;28;20231;-77
2022/07/26 00:40:54;;;;;;;6.13;1.40;;;;;;;;;;4954982;29;20262;-76
2022/07/26 00:43:21;;;;;;;4.77;1.23;;;;;;;;;;4954961;28;20262;-76
2022/07/26 00:45:50;;;;;;;3.03;1.17;;;;;;;;;;4955191;29;20293;-76
2022/07/26 00:48:17;;;;;;;4.13;1.50;;;;;;;;;;4955145;29;20214;-77
2022/07/26 00:50:44;;;;;;;4.10;1.70;;;;;;;;;;4954499;29;20203;-76
2022/07/26 00:53:12;;;;;;;3.90;1.10;;;;;;;;;;4937004;29;20239;-77
2022/07/26 00:55:39;;;;;;;3.50;1.50;;;;;;;;;;4935685;29;20279;-76
2022/07/26 00:58:06;;;;;;;3.43;1.37;;;;;;;;;;4935751;29;20259;-77
2022/07/26 01:00:34;;;;;;;5.47;1.53;;;;;;;;;;4954412;29;20266;-76
2022/07/26 01:03:02;;;;;;;3.60;1.30;;;;;;;;;;4954618;29;20257;-77
2022/07/26 01:05:30;;;;;;;5.60;1.67;;;;;;;;;;4953902;29;20659;-76
2022/07/26 01:07:57;;;;;;;6.07;1.60;;;;;;;;;;4954106;29;20306;-76
2022/07/26 01:10:24;;;;;;;7.63;1.40;;;;;;;;;;4954226;29;20664;-77
2022/07/26 01:12:51;;;;;;;5.17;1.60;;;;;;;;;;4954765;29;20235;-76
2022/07/26 01:15:18;;;;;;;3.87;1.53;;;;;;;;;;4954645;29;20247;-77
2022/07/26 01:17:46;;;;;;;6.17;2.10;;;;;;;;;;4954687;29;20203;-76
2022/07/26 01:20:15;;;;;;;6.87;1.50;;;;;;;;;;4954471;29;20237;-76
2022/07/26 01:22:44;;;;;;;7.43;1.70;;;;;;;;;;4954137;29;20294;-76
2022/07/26 01:25:11;;;;;;;4.67;1.50;;;;;;;;;;4954581;29;20726;-76
2022/07/26 01:27:39;;;;;;;4.83;1.57;;;;;;;;;;4954440;29;20242;-77
2022/07/26 01:30:07;;;;;;;4.47;1.47;;;;;;;;;;4954494;29;20206;-76
2022/07/26 01:32:34;;;;;;;5.80;1.50;;;;;;;;;;4954581;29;20274;-76
2022/07/26 01:35:02;;;;;;;3.70;1.60;;;;;;;;;;4972376;28;20242;-76
2022/07/26 01:37:29;;;;;;;6.33;1.80;;;;;;;;;;4973068;28;20206;-77
2022/07/26 01:39:58;;;;;;;5.30;1.63;;;;;;;;;;4973659;28;20268;-77
2022/07/26 01:42:25;;;;;;;9.53;1.90;;;;;;;;;;4973690;28;20270;-76
2022/07/26 01:44:52;;;;;;;5.07;2.00;;;;;;;;;;4973741;28;20237;-76
2022/07/26 01:47:19;;;;;;;4.60;1.53;;;;;;;;;;4973742;28;20206;-77
2022/07/26 01:49:46;;;;;;;8.60;2.03;;;;;;;;;;4973349;28;21094;-77
2022/07/26 01:52:13;;;;;;;5.17;1.67;;;;;;;;;;4973477;28;20238;-77
2022/07/26 01:54:41;;;;;;;6.60;1.40;;;;;;;;;;4973785;28;20215;-76
2022/07/26 01:57:09;;;;;;;4.20;1.50;;;;;;;;;;4973537;28;20679;-77
2022/07/26 01:59:36;;;;;;;4.77;1.60;;;;;;;;;;4973252;28;20270;-76
2022/07/26 02:02:04;;;;;;;5.63;1.70;;;;;;;;;;4970300;28;20748;-76
2022/07/26 02:07:16;;;;;;;7.47;1.63;;;;;;;;;;4957617;29;20206;-76
2022/07/26 02:09:43;;;;;;;9.10;1.90;;;;;;;;;;4957881;29;20230;-77
2022/07/26 02:12:12;;;;;;;5.27;1.60;;;;;;;;;;4957747;29;20246;-76
2022/07/26 02:14:39;;;;;;;4.23;1.33;;;;;;;;;;4957545;29;20290;-76
2022/07/26 02:17:06;;;;;;;3.30;1.60;;;;;;;;;;4957472;29;20199;-76
2022/07/26 02:19:34;;;;;;;6.77;2.00;;;;;;;;;;4957031;29;20314;-76
2022/07/26 02:22:01;;;;;;;6.43;1.60;;;;;;;;;;4957547;29;20203;-76
2022/07/26 02:24:28;;;;;;;7.07;1.73;;;;;;;;;;4957532;29;20203;-76
2022/07/26 02:26:56;;;;;;;4.60;1.50;;;;;;;;;;4957054;29;20246;-76
2022/07/26 02:29:25;;;;;;;5.87;1.63;;;;;;;;;;4957255;29;20636;-77
2022/07/26 02:31:52;;;;;;;7.97;1.90;;;;;;;;;;4956629;29;20211;-77
2022/07/26 02:34:20;;;;;;;5.23;1.80;;;;;;;;;;4956769;29;20207;-77
2022/07/26 02:36:47;;;;;;;5.20;1.30;;;;;;;;;;4957119;29;20246;-76
2022/07/26 02:39:15;;;;;;;3.97;1.50;;;;;;;;;;4956571;29;20238;-77
2022/07/26 02:41:42;;;;;;;7.13;1.70;;;;;;;;;;4957162;29;20642;-77
2022/07/26 02:44:09;;;;;;;3.87;1.70;;;;;;;;;;4956842;29;20754;-77
2022/07/26 02:46:38;;;;;;;4.57;1.60;;;;;;;;;;4956942;29;20289;-76
2022/07/26 02:49:05;;;;;;;4.87;1.70;;;;;;;;;;4956501;29;20638;-76
2022/07/26 02:51:33;;;;;;;3.20;1.60;;;;;;;;;;4957512;28;20235;-76
2022/07/26 02:54:00;;;;;;;4.07;1.50;;;;;;;;;;4956838;28;20273;-77
2022/07/26 02:56:27;;;;;;;6.57;1.47;;;;;;;;;;4957265;29;20230;-77
2022/07/26 02:58:54;;;;;;;5.23;1.57;;;;;;;;;;4956679;28;20278;-77
2022/07/26 03:01:22;;;;;;;6.17;1.67;;;;;;;;;;4955998;29;20334;-76
2022/07/26 03:03:50;;;;;;;3.87;1.50;;;;;;;;;;4956513;29;20639;-77
2022/07/26 03:06:17;;;;;;;7.37;1.90;;;;;;;;;;4956555;29;20290;-76
2022/07/26 03:08:45;;;;;;;6.77;1.60;;;;;;;;;;4956366;29;20679;-76
2022/07/26 03:11:12;;;;;;;6.37;1.57;;;;;;;;;;4956051;29;20742;-76
2022/07/26 03:13:39;;;;;;;6.10;2.30;;;;;;;;;;4956450;28;20253;-76
2022/07/26 03:16:07;;;;;;;6.57;1.50;;;;;;;;;;4956664;29;20285;-76
2022/07/26 03:18:34;;;;;;;6.97;1.67;;;;;;;;;;4955857;29;20238;-76
2022/07/26 03:21:03;;;;;;;3.23;1.57;;;;;;;;;;4956405;29;20653;-76
2022/07/26 03:23:32;;;;;;;7.00;1.67;;;;;;;;;;4956160;29;20246;-77
2022/07/26 03:26:00;;;;;;;4.87;1.50;;;;;;;;;;4956097;29;20758;-77
2022/07/26 03:28:29;;;;;;;4.73;1.53;;;;;;;;;;4958852;28;20195;-76
2022/07/26 03:30:57;;;;;;;4.40;1.40;;;;;;;;;;4975212;28;20231;-77
2022/07/26 03:33:24;;;;;;;4.17;1.67;;;;;;;;;;4974826;28;20261;-77
2022/07/26 03:35:52;;;;;;;4.83;1.70;;;;;;;;;;4975520;28;20297;-76
2022/07/26 03:38:20;;;;;;;6.50;1.60;;;;;;;;;;4975215;28;20293;-76
2022/07/26 03:40:47;;;;;;;4.03;1.40;;;;;;;;;;4975266;28;20312;-76
2022/07/26 03:43:15;;;;;;;4.23;1.77;;;;;;;;;;4974936;28;20245;-77
2022/07/26 03:45:42;;;;;;;6.77;1.73;;;;;;;;;;4974889;28;20253;-76
2022/07/26 03:48:10;;;;;;;7.77;2.23;;;;;;;;;;4975219;28;20611;-76
2022/07/26 03:50:37;;;;;;;5.60;1.80;;;;;;;;;;4974801;28;20230;-77
2022/07/26 03:53:05;;;;;;;3.73;1.70;;;;;;;;;;4975013;28;20753;-76
2022/07/26 03:58:18;;;;;;;4.33;1.70;;;;;;;;;;4965824;28;20232;-76
2022/07/26 04:00:46;;;;;;;5.33;1.60;;;;;;;;;;4955428;28;20282;-76
2022/07/26 04:03:13;;;;;;;5.03;1.80;;;;;;;;;;4955484;29;20322;-76
2022/07/26 04:05:41;;;;;;;5.60;1.70;;;;;;;;;;4955133;29;20238;-76
2022/07/26 04:08:08;;;;;;;4.23;1.50;;;;;;;;;;4955260;29;20230;-76
2022/07/26 04:10:37;;;;;;;4.10;1.70;;;;;;;;;;4955095;29;20223;-76
2022/07/26 04:13:04;;;;;;;4.53;1.70;;;;;;;;;;4954854;29;20211;-77
2022/07/26 04:15:31;;;;;;;4.60;1.80;;;;;;;;;;4955111;29;20242;-76
2022/07/26 04:17:59;;;;;;;4.23;1.57;;;;;;;;;;4955066;29;20262;-76
2022/07/26 04:20:26;;;;;;;4.87;1.73;;;;;;;;;;4954948;29;20266;-76
2022/07/26 04:22:53;;;;;;;5.10;1.70;;;;;;;;;;4955398;29;20214;-77
2022/07/26 04:25:20;;;;;;;4.37;1.70;;;;;;;;;;4955029;28;20238;-76
2022/07/26 04:27:49;;;;;;;6.27;2.00;;;;;;;;;;4954718;29;20254;-77
2022/07/26 04:30:16;;;;;;;4.10;1.70;;;;;;;;;;4954961;29;20234;-76
2022/07/26 04:32:44;;;;;;;4.60;2.00;;;;;;;;;;4966564;28;20248;-76
2022/07/26 04:35:11;;;;;;;6.30;2.33;;;;;;;;;;4973475;28;20293;-76
2022/07/26 04:37:41;;;;;;;5.50;1.77;;;;;;;;;;4963714;28;20286;-77
2022/07/26 04:40:10;;;;;;;4.93;1.83;;;;;;;;;;4954800;29;20226;-76
2022/07/26 04:42:37;;;;;;;5.23;1.90;;;;;;;;;;4954958;29;20302;-77
2022/07/26 04:45:06;;;;;;;4.67;1.40;;;;;;;;;;4954304;29;20316;-76
2022/07/26 04:47:33;;;;;;;4.73;1.80;;;;;;;;;;4954971;29;20246;-77
2022/07/26 04:50:00;;;;;;;7.93;1.80;;;;;;;;;;4954522;29;20242;-77
2022/07/26 04:52:28;;;;;;;4.77;2.03;;;;;;;;;;4954898;29;20214;-77
2022/07/26 04:54:55;;;;;;;5.10;1.80;;;;;;;;;;4954780;29;20298;-76
2022/07/26 04:57:22;;;;;;;8.67;1.90;;;;;;;;;;4954699;29;20310;-76
2022/07/26 04:59:49;;;;;;;7.07;1.83;;;;;;;;;;4957306;28;20230;-76
2022/07/26 05:02:18;;;;;;;5.37;1.90;;;;;;;;;;4973704;28;20265;-77
2022/07/26 05:04:45;;;;;;;6.43;2.13;;;;;;;;;;4973877;28;20745;-76
2022/07/26 05:07:12;;;;;;;3.97;1.63;;;;;;;;;;4973853;28;20257;-76
2022/07/26 05:09:39;;;;;;;3.13;1.60;;;;;;;;;;4974051;28;20234;-77
2022/07/26 05:12:07;;;;;;;4.07;1.60;;;;;;;;;;4973993;28;20285;-77
2022/07/26 05:14:36;;;;;;;5.53;2.00;;;;;;;;;;4973634;28;21083;-77
2022/07/26 05:17:03;;;;;;;4.60;2.03;;;;;;;;;;4974039;28;20406;-76
2022/07/26 05:19:32;;;;;;;5.63;2.23;;;;;;;;;;4973958;28;20234;-76
2022/07/26 05:21:59;;;;;;;5.87;1.57;;;;;;;;;;4973692;28;20226;-76
2022/07/26 05:24:26;;;;;;;4.87;1.80;;;;;;;;;;4973739;28;20689;-77
2022/07/26 05:26:53;;;;;;;7.17;2.00;;;;;;;;;;4962095;28;20286;-76
2022/07/26 05:29:20;;;;;;;6.07;1.70;;;;;;;;;;4961350;28;20234;-76
2022/07/26 05:31:49;;;;;;;3.83;1.80;;;;;;;;;;4955277;28;20660;-77
2022/07/26 05:34:16;;;;;;;7.23;2.03;;;;;;;;;;4954023;29;20238;-76
2022/07/26 05:36:45;;;;;;;4.57;1.70;;;;;;;;;;4957150;28;20210;-76
2022/07/26 05:39:12;;;;;;;5.80;2.00;;;;;;;;;;4964024;28;20670;-76
2022/07/26 05:41:39;;;;;;;3.17;1.70;;;;;;;;;;4957778;28;20302;-76
2022/07/26 05:44:06;;;;;;;4.70;1.90;;;;;;;;;;4957286;29;20249;-77
2022/07/26 05:46:33;;;;;;;7.53;2.07;;;;;;;;;;4957736;28;20329;-76
2022/07/26 05:49:01;;;;;;;4.30;1.60;;;;;;;;;;4957972;29;20214;-77
2022/07/26 05:51:29;;;;;;;3.37;1.70;;;;;;;;;;4966196;28;20237;-76
2022/07/26 05:53:57;;;;;;;4.43;1.33;;;;;;;;;;4958138;29;20305;-76
2022/07/26 05:56:24;;;;;;;4.20;1.63;;;;;;;;;;4958202;28;20238;-77
2022/07/26 05:58:52;;;;;;;4.43;1.60;;;;;;;;;;4957145;28;20278;-77
2022/07/26 06:01:19;;;;;;;5.07;1.50;;;;;;;;;;4957574;29;20262;-76
2022/07/26 06:03:46;;;;;;;4.67;1.50;;;;;;;;;;4957129;29;20274;-76
2022/07/26 06:06:13;;;;;;;3.57;1.37;;;;;;;;;;4957646;29;20286;-77
2022/07/26 06:08:40;;;;;;;3.20;1.83;;;;;;;;;;4957443;28;20207;-77
2022/07/26 06:11:09;;;;;;;3.70;1.50;;;;;;;;;;4957596;29;20242;-76
2022/07/26 06:13:36;;;;;;;3.97;1.60;;;;;;;;;;4957049;28;20208;-76
2022/07/26 06:16:04;;;;;;;4.97;1.40;;;;;;;;;;4957348;29;20294;-76
2022/07/26 06:18:31;;;;;;;5.57;1.70;;;;;;;;;;4957156;28;20294;-77
2022/07/26 06:20:59;;;;;;;6.27;1.80;;;;;;;;;;4957368;29;20262;-77
2022/07/26 06:23:26;;;;;;;5.97;1.77;;;;;;;;;;4957706;29;20249;-76
2022/07/26 06:25:53;;;;;;;2.90;1.43;;;;;;;;;;4957137;29;20290;-77
2022/07/26 06:28:22;;;;;;;2.40;1.30;;;;;;;;;;4956761;29;20247;-76
2022/07/26 06:30:49;;;;;;;3.93;1.40;;;;;;;;;;4961395;28;20230;-77
2022/07/26 06:33:16;;;;;;;4.97;1.50;;;;;;;;;;4957096;29;20239;-77
2022/07/26 06:35:44;;;;;;;5.27;1.50;;;;;;;;;;4960479;28;20295;-77
2022/07/26 06:38:11;;;;;;;3.70;1.37;;;;;;;;;;4975164;28;20245;-76
2022/07/26 06:40:38;;;;;;;3.70;1.30;;;;;;;;;;4955890;28;20234;-77
2022/07/26 06:43:05;;;;;;;3.60;1.60;;;;;;;;;;4962873;28;20678;-77
2022/07/26 06:45:34;;;;;;;5.70;1.48;;;;;;;;;;4965496;28;20259;-76
2022/07/26 06:48:01;;;;;;;8.02;1.75;;;;;;;;;;4956271;28;20299;-77
2022/07/26 06:50:28;;;;;;;3.70;1.45;;;;;;;;;;4956699;29;20290;-77
2022/07/26 06:52:56;;;;;;;3.80;1.60;;;;;;;;;;4956881;29;20286;-77
2022/07/26 06:55:23;;;;;;;3.15;1.23;;;;;;;;;;4956562;29;20204;-76
2022/07/26 06:57:50;;;;;;;4.75;1.20;;;;;;;;;;4956354;29;20251;-77
2022/07/26 07:00:18;;;;;;;3.25;1.48;;;;;;;;;;4956153;29;20236;-77
2022/07/26 07:02:47;;;;;;;3.38;1.10;;;;;;;;;;4956335;28;20259;-77
2022/07/26 07:05:14;;;;;;;26.15;5.35;;;;;;;;;;4956576;29;20234;-76
2022/07/26 07:07:42;;;;;;;7.45;2.35;;;;;;;;;;4957030;29;20207;-77
2022/07/26 07:10:09;;;;;;;5.63;1.40;;;;;;;;;;4956199;29;20239;-77
2022/07/26 07:12:36;;;;;;;4.70;1.30;;;;;;;;;;4956185;28;20242;-77
2022/07/26 07:15:04;;;;;;;4.70;1.17;;;;;;;;;;4956159;29;20743;-77
2022/07/26 07:17:31;;;;;;;5.50;1.60;;;;;;;;;;4956622;29;20246;-77
2022/07/26 07:20:00;;;;;;;6.55;1.40;;;;;;;;;;4956465;29;20290;-77
2022/07/26 07:22:27;;;;;;;6.00;1.75;;;;;;;;;;4956061;28;20227;-77
2022/07/26 07:24:54;;;;;;;3.70;1.20;;;;;;;;;;4955767;29;20305;-77
2022/07/26 07:27:21;;;;;;;3.92;1.10;;;;;;;;;;4956340;29;20301;-77
2022/07/26 07:29:49;;;;;;;5.63;1.35;;;;;;;;;;4955881;29;20250;-76
2022/07/26 07:32:16;;;;;;;3.95;1.20;;;;;;;;;;4954600;28;20230;-76
2022/07/26 07:34:44;;;;;;;4.38;1.70;;;;;;;;;;4955663;29;20230;-77
2022/07/26 07:37:13;;;;;;;4.00;1.30;;;;;;;;;;4955989;29;20199;-77
2022/07/26 07:39:40;;;;;;;4.68;1.40;;;;;;;;;;4955343;28;20682;-77
2022/07/26 07:42:07;;;;;;;3.40;1.05;;;;;;;;;;4966358;28;20329;-77
2022/07/26 07:44:34;;;;;;;2.83;1.20;;;;;;;;;;4956090;28;20671;-77
2022/07/26 07:47:01;;;;;;;2.53;1.13;;;;;;;;;;4956384;29;20254;-77
2022/07/26 07:49:29;;;;;;;4.57;1.20;;;;;;;;;;4955958;29;20293;-77
2022/07/26 07:51:56;;;;;;;5.95;1.30;;;;;;;;;;4955607;29;20242;-77
2022/07/26 07:54:25;;;;;;;5.82;1.30;;;;;;;;;;4955255;29;20294;-77
2022/07/26 07:56:55;;;;;;;2.70;1.10;;;;;;;;;;4955683;28;20234;-77
2022/07/26 07:59:22;;;;;;;2.97;1.20;;;;;;;;;;4954226;28;20239;-77
2022/07/26 08:01:49;;;;;;;2.72;1.00;;;;;;;;;;4955020;28;20255;-77
2022/07/26 08:04:16;;;;;;;5.00;1.10;;;;;;;;;;4955386;29;20290;-77
2022/07/26 08:06:44;;;;;;;5.45;1.70;;;;;;;;;;4955809;29;20294;-76
2022/07/26 08:09:11;;;;;;;5.28;1.05;;;;;;;;;;4958588;28;20289;-77
2022/07/26 08:11:39;;;;;;;4.53;1.05;;;;;;;;;;4954956;28;20203;-77
2022/07/26 08:14:07;;;;;;;4.05;1.38;;;;;;;;;;4955450;28;20207;-77
2022/07/26 08:16:34;;;;;;;1.98;0.90;;;;;;;;;;4954735;29;20234;-77
2022/07/26 08:19:01;;;;;;;3.67;1.10;;;;;;;;;;4955075;28;20234;-77
2022/07/26 08:21:29;;;;;;;2.72;0.98;;;;;;;;;;4954867;28;20592;-77
2022/07/26 08:23:56;;;;;;;6.10;1.10;;;;;;;;;;4954543;29;20227;-77
2022/07/26 08:26:23;;;;;;;3.05;1.00;;;;;;;;;;4963372;28;20245;-77
2022/07/26 08:28:52;;;;;;;2.85;0.90;;;;;;;;;;4955219;29;20290;-77
2022/07/26 08:31:19;;;;;;;2.33;1.00;;;;;;;;;;4955016;29;20238;-77
2022/07/26 08:33:47;;;;;;;6.22;0.95;;;;;;;;;;4954636;28;20231;-77
2022/07/26 08:36:15;;;;;;;1.42;0.80;;;;;;;;;;4954783;28;20238;-77
2022/07/26 08:38:42;;;;;;;2.38;0.68;;;;;;;;;;4954652;29;20679;-77
2022/07/26 08:41:09;;;;;;;2.50;0.85;;;;;;;;;;4954939;29;20285;-77
2022/07/26 08:43:37;;;;;;;1.73;0.77;;;;;;;;;;4954609;28;20207;-78
2022/07/26 08:46:05;;;;;;;2.67;0.93;;;;;;;;;;4954488;28;20238;-77
2022/07/26 08:48:33;;;;;;;2.40;0.82;;;;;;;;;;4954347;29;20207;-77
2022/07/26 08:51:01;;;;;;;2.70;1.00;;;;;;;;;;4954756;28;20234;-77
2022/07/26 08:53:29;;;;;;;4.40;1.17;;;;;;;;;;4955014;29;20195;-77
2022/07/26 08:55:57;;;;;;;1.42;0.70;;;;;;;;;;4955141;29;20235;-77
2022/07/26 08:58:24;;;;;;;1.33;0.80;;;;;;;;;;4954588;29;20314;-77
2022/07/26 09:01:03;;;;;;;3.17;0.80;;;;;;;;;;4954871;29;20254;-77
2022/07/26 09:03:32;;;;;;;3.45;0.90;;;;;;;;;;4954293;28;20278;-77
2022/07/26 09:06:11;;;;;;;4.57;1.08;;;;;;;;;;4954458;29;20302;-77
2022/07/26 09:08:38;;;;;;;1.52;0.70;;;;;;;;;;4954227;29;20241;-77
2022/07/26 09:11:26;;;;;;;3.35;0.85;;;;;;;;;;4955736;28;20242;-77
2022/07/26 09:13:54;;;;;;;1.75;0.80;;;;;;;;;;4968441;28;20234;-77
2022/07/26 09:16:21;;;;;;;2.75;0.93;;;;;;;;;;4950235;29;20238;-77
2022/07/26 09:18:50;;;;;;;3.13;0.80;;;;;;;;;;4958700;28;20242;-77
2022/07/26 09:21:27;;;;;;;2.22;0.90;;;;;;;;;;4957750;29;20271;-77
2022/07/26 09:23:54;;;;;;;3.90;1.13;;;;;;;;;;4958108;29;20745;-77
2022/07/26 09:26:22;;;;;;;3.85;1.08;;;;;;;;;;4958857;29;20234;-77
2022/07/26 09:29:02;;;;;;;2.95;1.00;;;;;;;;;;4958348;29;20203;-77
2022/07/26 09:31:29;;;;;;;3.63;1.10;;;;;;;;;;4960102;28;20594;-77
2022/07/26 09:33:58;;;;;;;2.10;1.00;;;;;;;;;;4959479;28;20245;-77
2022/07/26 09:36:26;;;;;;;2.42;0.80;;;;;;;;;;4957868;28;20261;-77
2022/07/26 09:38:57;;;;;;;2.20;0.70;;;;;;;;;;4958103;28;20205;-77
2022/07/26 09:41:25;;;;;;;2.25;0.80;;;;;;;;;;4958342;29;20199;-77
2022/07/26 09:43:53;;;;;;;1.35;0.70;;;;;;;;;;4956669;29;20234;-77
2022/07/26 09:46:20;;;;;;;2.55;0.90;;;;;;;;;;4962346;28;20204;-77
2022/07/26 09:48:47;;;;;;;2.05;0.82;;;;;;;;;;4961106;28;20282;-77
2022/07/26 09:51:16;;;;;;;1.63;0.73;;;;;;;;;;4957540;29;20266;-77
2022/07/26 09:53:46;;;;;;;1.50;0.63;;;;;;;;;;4957972;28;20226;-77
2022/07/26 09:56:14;;;;;;;3.85;0.68;;;;;;;;;;4958025;28;20225;-77
2022/07/26 09:58:41;;;;;;;1.40;0.70;;;;;;;;;;4976229;28;20286;-77
2022/07/26 10:01:09;;;;;;;1.13;0.80;;;;;;;;;;4957357;28;20329;-77
2022/07/26 10:03:36;;;;;;;3.05;0.90;;;;;;;;;;4964374;28;20270;-77
2022/07/26 10:06:04;;;;;;;1.85;0.88;;;;;;;;;;4960388;28;20293;-77
2022/07/26 10:08:33;;;;;;;1.13;0.70;;;;;;;;;;4957910;28;20796;-77
2022/07/26 10:11:04;;;;;;;1.35;0.55;;;;;;;;;;4957611;29;20244;-76
2022/07/26 10:13:32;;;;;;;3.38;0.98;;;;;;;;;;4957992;28;20203;-77
2022/07/26 10:16:00;;;;;;;2.47;0.90;;;;;;;;;;4957489;28;20294;-77
2022/07/26 10:18:44;;;;;;;1.73;0.80;;;;;;;;;;4956973;29;20210;-77
2022/07/26 10:21:21;;;;;;;3.05;0.80;;;;;;;;;;4957081;28;20672;-77
2022/07/26 10:23:50;;;;;;;2.95;0.80;;;;;;;;;;4956608;28;20262;-77
2022/07/26 10:26:36;;;;;;;2.53;0.80;;;;;;;;;;4972820;28;20268;-77
2022/07/26 10:29:20;;;;;;;3.08;0.70;;;;;;;;;;4976491;28;20237;-77
2022/07/26 10:31:48;;;;;;;1.30;0.52;;;;;;;;;;4958821;28;20218;-77
2022/07/26 10:34:30;;;;;;;1.70;0.82;;;;;;;;;;4957009;29;20199;-77
2022/07/26 10:36:58;;;;;;;1.77;0.80;;;;;;;;;;4957246;29;20238;-77
2022/07/26 10:39:27;;;;;;;1.15;0.60;;;;;;;;;;4957351;29;20266;-77
2022/07/26 10:41:58;;;;;;;1.83;0.60;;;;;;;;;;4956981;29;20238;-78
2022/07/26 10:44:26;;;;;;;2.10;0.70;;;;;;;;;;4956790;29;20662;-77
2022/07/26 10:47:01;;;;;;;2.05;0.63;;;;;;;;;;4956460;29;20290;-77
2022/07/26 10:49:35;;;;;;;2.05;0.82;;;;;;;;;;4956850;29;20213;-77
2022/07/26 10:52:10;;;;;;;3.03;0.60;;;;;;;;;;4962080;28;20208;-76
2022/07/26 10:55:02;;;;;;;1.10;0.80;;;;;;;;;;4956588;28;20234;-76
2022/07/26 10:57:31;;;;;;;2.05;0.80;;;;;;;;;;4956691;28;20586;-76
2022/07/26 10:59:59;;;;;;;3.78;0.90;;;;;;;;;;4938093;29;20342;-73
2022/07/26 11:02:27;;;;;;;2.30;0.70;;;;;;;;;;4954289;29;20311;-73
2022/07/26 11:04:59;;;;;;;3.17;0.70;;;;;;;;;;4956443;29;20199;-73
2022/07/26 11:07:27;;;;;;;2.58;0.80;;;;;;;;;;4956553;29;20587;-73
2022/07/26 11:09:55;;;;;;;1.05;0.70;;;;;;;;;;4955816;29;20299;-73
2022/07/26 11:12:22;;;;;;;1.83;0.90;;;;;;;;;;4956461;29;20242;-73
2022/07/26 11:14:52;;;;;;;2.80;0.98;;;;;;;;;;4956173;29;20290;-73
2022/07/26 11:17:25;;;;;;;2.35;0.68;;;;;;;;;;4955528;29;20207;-73
2022/07/26 11:19:52;;;;;;;1.58;0.60;;;;;;;;;;4956051;29;20290;-73
2022/07/26 11:22:19;;;;;;;1.48;0.80;;;;;;;;;;4955623;28;20258;-73
2022/07/26 11:24:47;;;;;;;3.30;0.85;;;;;;;;;;4955540;28;20295;-73
2022/07/26 11:27:14;;;;;;;16.50;2.13;;;;;;;;;;4956023;28;20294;-73
2022/07/26 11:29:41;;;;;;;3.75;1.00;;;;;;;;;;4955583;29;20243;-73
2022/07/26 11:32:18;;;;;;;2.80;0.70;;;;;;;;;;4955085;28;20737;-73
2022/07/26 11:34:45;;;;;;;30.95;3.13;;;;;;;;;;4957067;28;20207;-74
2022/07/26 11:37:13;;;;;;;4.88;0.90;;;;;;;;;;4975087;28;20729;-73
2022/07/26 11:39:40;;;;;;;1.02;0.57;;;;;;;;;;4960733;28;20290;-74
2022/07/26 11:42:09;;;;;;;1.70;0.70;;;;;;;;;;4955182;28;20293;-74
2022/07/26 11:44:36;;;;;;;2.80;0.75;;;;;;;;;;4955892;28;20239;-73
2022/07/26 11:47:12;;;;;;;7.50;1.10;;;;;;;;;;4954728;29;20722;-73
2022/07/26 11:49:40;;;;;;;2.92;0.70;;;;;;;;;;4955739;29;20207;-73
2022/07/26 11:52:07;;;;;;;2.15;0.70;;;;;;;;;;4955384;28;20294;-73
2022/07/26 11:54:44;;;;;;;2.53;0.80;;;;;;;;;;4955349;28;20207;-73
2022/07/26 11:57:11;;;;;;;2.03;0.60;;;;;;;;;;4955268;29;20351;-73
2022/07/26 11:59:39;;;;;;;2.38;0.90;;;;;;;;;;4961808;28;20241;-73
2022/07/26 12:02:07;;;;;;;3.20;0.77;;;;;;;;;;4974552;28;20751;-73
2022/07/26 12:04:37;;;;;;;2.80;0.80;;;;;;;;;;4964531;28;20570;-74
2022/07/26 12:07:09;;;;;;;1.25;0.70;;;;;;;;;;4955006;28;20203;-73
2022/07/26 12:09:38;;;;;;;2.10;0.90;;;;;;;;;;4957580;28;20210;-73
2022/07/26 12:12:06;;;;;;;2.70;0.70;;;;;;;;;;4955090;29;20299;-73
2022/07/26 12:14:34;;;;;;;2.05;0.70;;;;;;;;;;4955124;29;20199;-73
2022/07/26 12:17:11;;;;;;;1.20;0.73;;;;;;;;;;4954866;28;20207;-73
2022/07/26 12:19:40;;;;;;;2.70;0.70;;;;;;;;;;4955071;28;20211;-73
2022/07/26 12:22:11;;;;;;;1.58;0.60;;;;;;;;;;4955157;29;20203;-73
2022/07/26 12:24:40;;;;;;;1.80;0.77;;;;;;;;;;4955195;29;20241;-74
2022/07/26 12:27:08;;;;;;;2.10;0.70;;;;;;;;;;4954661;29;20753;-73
2022/07/26 12:29:36;;;;;;;3.08;0.73;;;;;;;;;;4954598;28;20631;-73
2022/07/26 12:32:07;;;;;;;1.40;0.75;;;;;;;;;;4954690;29;20211;-73
2022/07/26 12:34:35;;;;;;;2.88;0.70;;;;;;;;;;4954840;29;20603;-73
2022/07/26 12:37:08;;;;;;;2.13;0.73;;;;;;;;;;4961278;28;20211;-73
2022/07/26 12:39:35;;;;;;;2.42;0.70;;;;;;;;;;4974145;28;20285;-73
2022/07/26 12:42:17;;;;;;;1.13;0.70;;;;;;;;;;4974155;28;20324;-73
2022/07/26 12:44:44;;;;;;;2.25;0.60;;;;;;;;;;4973494;28;20234;-73
2022/07/26 12:47:11;;;;;;;1.70;0.75;;;;;;;;;;4973497;28;20245;-73
2022/07/26 12:49:39;;;;;;;2.08;0.70;;;;;;;;;;4973887;28;20294;-73
2022/07/26 12:52:07;;;;;;;1.60;0.70;;;;;;;;;;4974110;28;20202;-73
2022/07/26 12:54:35;;;;;;;3.00;0.80;;;;;;;;;;4974046;28;20249;-73
2022/07/26 12:57:02;;;;;;;1.25;0.55;;;;;;;;;;4957235;28;20290;-73
2022/07/26 12:59:29;;;;;;;1.95;0.70;;;;;;;;;;4958017;28;20265;-73
2022/07/26 13:01:56;;;;;;;3.00;0.75;;;;;;;;;;4973859;28;20776;-73
2022/07/26 13:04:23;;;;;;;1.17;0.60;;;;;;;;;;4973759;28;20257;-73
2022/07/26 13:06:51;;;;;;;2.08;0.60;;;;;;;;;;4958427;28;20290;-73
2022/07/26 13:09:19;;;;;;;2.70;0.52;;;;;;;;;;4954534;28;20666;-72
2022/07/26 13:11:46;;;;;;;4.38;0.80;;;;;;;;;;4953845;29;20286;-73
2022/07/26 13:14:14;;;;;;;0.93;0.50;;;;;;;;;;4954254;28;20263;-74
2022/07/26 13:16:41;;;;;;;2.08;0.60;;;;;;;;;;4954505;29;20294;-74
2022/07/26 13:19:08;;;;;;;1.75;0.60;;;;;;;;;;4953954;29;20246;-74
2022/07/26 13:21:35;;;;;;;1.83;0.50;;;;;;;;;;4953474;28;20231;-74
2022/07/26 13:24:02;;;;;;;1.70;0.60;;;;;;;;;;4954323;29;20315;-74
2022/07/26 13:26:31;;;;;;;3.15;0.70;;;;;;;;;;4953888;28;20199;-74
2022/07/26 13:28:58;;;;;;;1.80;0.60;;;;;;;;;;4954446;29;20238;-74
2022/07/26 13:31:25;;;;;;;1.90;0.55;;;;;;;;;;4954535;28;20294;-74
2022/07/26 13:33:53;;;;;;;2.85;0.82;;;;;;;;;;4954144;29;20214;-74
2022/07/26 13:36:20;;;;;;;1.67;0.60;;;;;;;;;;4954253;29;20239;-74
2022/07/26 13:38:47;;;;;;;0.77;0.55;;;;;;;;;;4954102;29;20294;-74
2022/07/26 13:41:15;;;;;;;2.13;0.68;;;;;;;;;;4954052;29;20235;-74
2022/07/26 13:43:43;;;;;;;1.50;0.60;;;;;;;;;;4953958;28;20262;-73
2022/07/26 13:46:11;;;;;;;1.23;0.50;;;;;;;;;;4954360;29;20235;-73
2022/07/26 13:48:38;;;;;;;2.15;0.75;;;;;;;;;;4954205;28;20235;-75
2022/07/26 13:51:06;;;;;;;2.25;0.60;;;;;;;;;;4953899;28;20203;-73
2022/07/26 13:53:33;;;;;;;1.85;0.60;;;;;;;;;;4953678;29;20294;-75
2022/07/26 13:56:00;;;;;;;1.00;0.40;;;;;;;;;;4953376;28;20264;-74
2022/07/26 13:58:27;;;;;;;1.23;0.50;;;;;;;;;;4952432;28;20262;-75
2022/07/26 14:00:56;;;;;;;3.47;0.52;;;;;;;;;;4943427;29;20209;-75
2022/07/26 14:03:23;;;;;;;4.05;0.60;;;;;;;;;;4957619;29;20607;-74
2022/07/26 14:05:51;;;;;;;1.48;0.50;;;;;;;;;;4938421;29;20258;-75
2022/07/26 14:08:18;;;;;;;1.98;0.50;;;;;;;;;;4938265;29;20294;-75
2022/07/26 14:10:45;;;;;;;4.32;0.50;;;;;;;;;;4938086;29;20287;-74
2022/07/26 14:13:13;;;;;;;1.02;0.50;;;;;;;;;;4937990;29;20197;-74
2022/07/26 14:15:40;;;;;;;1.63;0.70;;;;;;;;;;4937996;29;20239;-74
2022/07/26 14:18:09;;;;;;;1.17;0.60;;;;;;;;;;4938186;29;20208;-74
2022/07/26 14:20:36;;;;;;;0.90;0.50;;;;;;;;;;4937750;29;20657;-74
2022/07/26 14:23:03;;;;;;;1.35;0.40;;;;;;;;;;4948249;29;20635;-74
2022/07/26 14:25:31;;;;;;;1.83;0.60;;;;;;;;;;4957101;29;20286;-74
2022/07/26 14:27:58;;;;;;;2.38;0.50;;;;;;;;;;4938587;29;20295;-75
2022/07/26 14:30:26;;;;;;;1.92;0.60;;;;;;;;;;4937608;29;20569;-74
2022/07/26 14:32:53;;;;;;;1.60;0.60;;;;;;;;;;4937595;29;20218;-74
2022/07/26 14:35:22;;;;;;;2.30;0.60;;;;;;;;;;4937788;29;20271;-74
2022/07/26 14:37:49;;;;;;;1.77;0.57;;;;;;;;;;4937766;29;20246;-74
2022/07/26 14:40:17;;;;;;;1.80;0.60;;;;;;;;;;4937411;29;20242;-75
2022/07/26 14:42:45;;;;;;;2.47;0.50;;;;;;;;;;4937565;29;20256;-74
2022/07/26 14:45:12;;;;;;;0.93;0.50;;;;;;;;;;4937212;29;20663;-74
2022/07/26 14:47:39;;;;;;;0.95;0.50;;;;;;;;;;4937488;29;20739;-75
2022/07/26 14:50:07;;;;;;;1.13;0.50;;;;;;;;;;4937633;29;20305;-74
2022/07/26 14:52:36;;;;;;;1.40;0.50;;;;;;;;;;4937547;29;20246;-74
2022/07/26 14:55:04;;;;;;;2.88;0.50;;;;;;;;;;4936873;29;20227;-74